Corrour, United Kingdom
Current Conditions -  °F | °C
As of 4:20 AM on Thursday 29 Jan 2015 (Local Time) from EGPE Reporting Station
Snow Showers Snow Showers  
Wind Chill: -6°   Ceiling: 4200
Heat Index:   Visibility: 2.5mi
Dew Point: -1°   Wind: 16mph
Humidity: 93%   Direction: 240°WSW
Pressure: 28.79"   Gusts: NA
Location:  56.79°N, 4.6°W
Report Text: EGPE 290420Z 24014KT 4000 SHSN FEW008 SCT020 BKN042 00/M01 Q0975
Loading
Personal Weather Stations






























Interactive Weather Map New forecast layout! Learn more

10-Day Weather Forecast

Advertisements
Track Severe Weather on mobile